sensor_id;sensor_type;location;lat;lon;timestamp;pressure;altitude;pressure_sealevel;temperature;humidity
33161;BME280;19522;45.656;11.302;2024-02-15T00:00:51;99138.63;;;5.57;96.68
33161;BME280;19522;45.656;11.302;2024-02-15T00:03:17;99124.00;;;5.89;94.51
33161;BME280;19522;45.656;11.302;2024-02-15T00:05:44;99152.00;;;6.07;93.73
33161;BME280;19522;45.656;11.302;2024-02-15T00:08:11;99115.88;;;5.40;96.39
33161;BME280;19522;45.656;11.302;2024-02-15T00:10:37;99122.38;;;5.27;98.25
33161;BME280;19522;45.656;11.302;2024-02-15T00:13:03;99099.78;;;4.99;99.81
33161;BME280;19522;45.656;11.302;2024-02-15T00:15:31;99071.56;;;4.93;100.00
33161;BME280;19522;45.656;11.302;2024-02-15T00:17:57;99139.69;;;5.35;100.00
33161;BME280;19522;45.656;11.302;2024-02-15T00:20:22;99109.63;;;5.29;100.00
33161;BME280;19522;45.656;11.302;2024-02-15T00:22:48;99125.94;;;5.38;100.00
33161;BME280;19522;45.656;11.302;2024-02-15T00:25:14;99125.81;;;5.59;100.00
33161;BME280;19522;45.656;11.302;2024-02-15T00:27:40;99121.03;;;5.63;99.53
33161;BME280;19522;45.656;11.302;2024-02-15T00:30:05;99129.97;;;5.92;98.97
33161;BME280;19522;45.656;11.302;2024-02-15T00:32:35;99083.56;;;5.89;97.03
33161;BME280;19522;45.656;11.302;2024-02-15T00:35:02;99112.78;;;5.93;96.48
33161;BME280;19522;45.656;11.302;2024-02-15T00:37:28;99085.84;;;5.64;97.00
33161;BME280;19522;45.656;11.302;2024-02-15T00:39:53;99089.53;;;5.63;97.58
33161;BME280;19522;45.656;11.302;2024-02-15T00:42:19;99117.91;;;5.87;96.86
33161;BME280;19522;45.656;11.302;2024-02-15T00:44:44;99110.25;;;5.82;96.89
33161;BME280;19522;45.656;11.302;2024-02-15T00:47:10;99094.34;;;5.69;96.88
33161;BME280;19522;45.656;11.302;2024-02-15T00:49:37;99122.47;;;5.86;97.07
33161;BME280;19522;45.656;11.302;2024-02-15T00:52:03;99112.25;;;5.80;96.75
33161;BME280;19522;45.656;11.302;2024-02-15T00:54:28;99093.38;;;5.60;96.90
33161;BME280;19522;45.656;11.302;2024-02-15T00:56:54;99104.84;;;5.82;97.27
33161;BME280;19522;45.656;11.302;2024-02-15T00:59:19;99119.75;;;5.67;98.57
33161;BME280;19522;45.656;11.302;2024-02-15T01:01:45;99119.88;;;5.55;99.94
33161;BME280;19522;45.656;11.302;2024-02-15T01:04:13;99096.19;;;5.59;99.02
33161;BME280;19522;45.656;11.302;2024-02-15T01:06:38;99076.22;;;5.61;98.16
33161;BME280;19522;45.656;11.302;2024-02-15T01:09:04;99119.59;;;5.88;97.61
33161;BME280;19522;45.656;11.302;2024-02-15T01:11:30;99112.25;;;5.80;97.55
33161;BME280;19522;45.656;11.302;2024-02-15T01:14:00;99115.22;;;6.06;96.89
33161;BME280;19522;45.656;11.302;2024-02-15T01:16:25;99094.38;;;5.99;95.64
33161;BME280;19522;45.656;11.302;2024-02-15T01:18:51;99117.81;;;6.08;95.82
33161;BME280;19522;45.656;11.302;2024-02-15T01:21:16;99033.66;;;5.45;96.58
33161;BME280;19522;45.656;11.302;2024-02-15T01:23:42;99110.69;;;5.87;96.88
33161;BME280;19522;45.656;11.302;2024-02-15T01:26:09;99114.09;;;5.99;97.11
33161;BME280;19522;45.656;11.302;2024-02-15T01:28:35;99119.19;;;5.92;97.48
33161;BME280;19522;45.656;11.302;2024-02-15T01:31:00;99078.34;;;5.87;97.26
33161;BME280;19522;45.656;11.302;2024-02-15T01:33:27;99070.22;;;5.97;96.15
33161;BME280;19522;45.656;11.302;2024-02-15T01:35:52;99083.47;;;6.10;95.92
33161;BME280;19522;45.656;11.302;2024-02-15T01:38:18;99116.09;;;6.07;97.80
33161;BME280;19522;45.656;11.302;2024-02-15T01:40:46;99062.44;;;5.65;98.65
33161;BME280;19522;45.656;11.302;2024-02-15T01:43:12;99106.28;;;5.96;99.41
33161;BME280;19522;45.656;11.302;2024-02-15T01:45:38;99095.63;;;5.95;99.07
33161;BME280;19522;45.656;11.302;2024-02-15T01:48:04;99106.28;;;6.26;98.33
33161;BME280;19522;45.656;11.302;2024-02-15T01:50:31;99079.41;;;6.44;95.75
33161;BME280;19522;45.656;11.302;2024-02-15T01:52:58;99074.84;;;6.54;94.06
33161;BME280;19522;45.656;11.302;2024-02-15T01:55:24;99050.91;;;6.21;94.74
33161;BME280;19522;45.656;11.302;2024-02-15T01:57:51;99069.13;;;6.00;96.66
33161;BME280;19522;45.656;11.302;2024-02-15T02:00:18;99096.09;;;6.00;98.22
33161;BME280;19522;45.656;11.302;2024-02-15T02:02:44;99098.81;;;6.00;98.89
33161;BME280;19522;45.656;11.302;2024-02-15T02:05:10;99098.47;;;5.93;99.52
33161;BME280;19522;45.656;11.302;2024-02-15T02:07:37;99076.63;;;6.06;98.26
33161;BME280;19522;45.656;11.302;2024-02-15T02:10:03;99067.09;;;6.21;97.41
33161;BME280;19522;45.656;11.302;2024-02-15T02:12:29;99090.06;;;6.35;96.92
33161;BME280;19522;45.656;11.302;2024-02-15T02:14:56;99071.09;;;5.98;98.49
33161;BME280;19522;45.656;11.302;2024-02-15T02:17:21;99027.56;;;5.34;99.45
33161;BME280;19522;45.656;11.302;2024-02-15T02:19:47;99084.69;;;5.47;100.00
33161;BME280;19522;45.656;11.302;2024-02-15T02:22:16;99087.84;;;5.62;100.00
33161;BME280;19522;45.656;11.302;2024-02-15T02:25:05;99083.31;;;5.63;100.00
33161;BME280;19522;45.656;11.302;2024-02-15T02:27:32;99056.91;;;5.37;100.00
33161;BME280;19522;45.656;11.302;2024-02-15T02:29:58;99071.22;;;5.86;100.00
33161;BME280;19522;45.656;11.302;2024-02-15T02:32:25;99036.91;;;5.49;100.00
33161;BME280;19522;45.656;11.302;2024-02-15T02:34:51;99048.53;;;5.40;100.00
33161;BME280;19522;45.656;11.302;2024-02-15T02:37:25;99077.75;;;5.54;100.00
33161;BME280;19522;45.656;11.302;2024-02-15T02:39:50;99075.47;;;5.40;100.00
33161;BME280;19522;45.656;11.302;2024-02-15T02:42:16;99075.94;;;5.55;100.00
33161;BME280;19522;45.656;11.302;2024-02-15T02:44:41;99070.66;;;5.92;99.75
33161;BME280;19522;45.656;11.302;2024-02-15T02:47:10;99072.69;;;6.10;97.73
33161;BME280;19522;45.656;11.302;2024-02-15T02:49:36;99031.09;;;5.54;99.58
33161;BME280;19522;45.656;11.302;2024-02-15T02:52:02;99064.72;;;5.69;99.95
33161;BME280;19522;45.656;11.302;2024-02-15T02:54:28;99042.59;;;5.75;98.47
33161;BME280;19522;45.656;11.302;2024-02-15T02:56:54;99069.53;;;5.85;99.02
33161;BME280;19522;45.656;11.302;2024-02-15T02:59:20;99061.59;;;5.54;99.71
33161;BME280;19522;45.656;11.302;2024-02-15T03:01:45;99045.94;;;5.09;100.00
33161;BME280;19522;45.656;11.302;2024-02-15T03:04:11;99037.47;;;5.23;100.00
33161;BME280;19522;45.656;11.302;2024-02-15T03:06:37;99069.41;;;5.67;100.00
33161;BME280;19522;45.656;11.302;2024-02-15T03:09:03;99064.00;;;5.38;100.00
33161;BME280;19522;45.656;11.302;2024-02-15T03:11:32;99067.09;;;5.23;100.00
33161;BME280;19522;45.656;11.302;2024-02-15T03:13:59;99098.53;;;5.13;100.00
33161;BME280;19522;45.656;11.302;2024-02-15T03:16:25;99076.31;;;4.80;100.00
33161;BME280;19522;45.656;11.302;2024-02-15T03:18:51;99100.59;;;4.90;100.00
33161;BME280;19522;45.656;11.302;2024-02-15T03:21:18;99090.84;;;4.98;100.00
33161;BME280;19522;45.656;11.302;2024-02-15T03:23:44;99091.69;;;4.99;100.00
33161;BME280;19522;45.656;11.302;2024-02-15T03:26:12;99077.63;;;4.86;100.00
33161;BME280;19522;45.656;11.302;2024-02-15T03:28:38;99070.22;;;4.78;100.00
33161;BME280;19522;45.656;11.302;2024-02-15T03:31:03;99063.94;;;5.08;100.00
33161;BME280;19522;45.656;11.302;2024-02-15T03:33:30;99075.06;;;5.54;100.00
33161;BME280;19522;45.656;11.302;2024-02-15T03:36:00;99058.78;;;5.56;99.54
33161;BME280;19522;45.656;11.302;2024-02-15T03:38:26;99048.38;;;5.22;99.93
33161;BME280;19522;45.656;11.302;2024-02-15T03:40:55;99034.03;;;5.11;100.00
33161;BME280;19522;45.656;11.302;2024-02-15T03:43:20;99053.44;;;5.05;100.00
33161;BME280;19522;45.656;11.302;2024-02-15T03:45:49;99074.16;;;5.05;100.00
33161;BME280;19522;45.656;11.302;2024-02-15T03:48:15;99024.03;;;4.73;100.00
33161;BME280;19522;45.656;11.302;2024-02-15T03:50:40;99041.06;;;4.83;100.00
33161;BME280;19522;45.656;11.302;2024-02-15T03:53:07;99048.31;;;4.92;100.00
33161;BME280;19522;45.656;11.302;2024-02-15T03:55:32;99044.75;;;4.92;100.00
33161;BME280;19522;45.656;11.302;2024-02-15T03:58:01;99038.84;;;4.98;100.00
33161;BME280;19522;45.656;11.302;2024-02-15T04:00:27;99044.41;;;5.26;100.00
33161;BME280;19522;45.656;11.302;2024-02-15T04:02:52;99067.22;;;5.22;100.00
33161;BME280;19522;45.656;11.302;2024-02-15T04:05:18;99045.25;;;5.26;100.00
33161;BME280;19522;45.656;11.302;2024-02-15T04:07:44;99062.31;;;5.66;97.27
33161;BME280;19522;45.656;11.302;2024-02-15T04:10:10;99062.16;;;5.58;96.96
33161;BME280;19522;45.656;11.302;2024-02-15T04:12:39;99020.31;;;5.24;96.77
33161;BME280;19522;45.656;11.302;2024-02-15T04:15:08;99062.59;;;5.34;97.50
33161;BME280;19522;45.656;11.302;2024-02-15T04:17:42;99061.53;;;5.15;99.53
33161;BME280;19522;45.656;11.302;2024-02-15T04:20:10;98926.03;;;4.15;100.00
33161;BME280;19522;45.656;11.302;2024-02-15T04:22:37;99069.59;;;5.15;100.00
33161;BME280;19522;45.656;11.302;2024-02-15T04:25:07;98925.31;;;3.82;100.00
33161;BME280;19522;45.656;11.302;2024-02-15T04:27:35;99079.72;;;4.82;100.00
33161;BME280;19522;45.656;11.302;2024-02-15T04:30:02;99082.66;;;5.10;100.00
33161;BME280;19522;45.656;11.302;2024-02-15T04:32:28;99076.84;;;5.05;100.00
33161;BME280;19522;45.656;11.302;2024-02-15T04:34:55;99080.63;;;4.92;100.00
33161;BME280;19522;45.656;11.302;2024-02-15T04:37:20;98936.78;;;4.15;100.00
33161;BME280;19522;45.656;11.302;2024-02-15T04:39:46;99086.81;;;4.83;100.00
33161;BME280;19522;45.656;11.302;2024-02-15T04:42:13;99093.34;;;4.80;100.00
33161;BME280;19522;45.656;11.302;2024-02-15T04:44:39;99006.03;;;4.23;100.00
33161;BME280;19522;45.656;11.302;2024-02-15T04:47:05;99090.75;;;4.79;100.00
33161;BME280;19522;45.656;11.302;2024-02-15T04:49:31;99079.88;;;4.49;100.00
33161;BME280;19522;45.656;11.302;2024-02-15T04:51:57;99013.44;;;4.09;100.00
33161;BME280;19522;45.656;11.302;2024-02-15T04:54:23;98898.84;;;3.46;100.00
33161;BME280;19522;45.656;11.302;2024-02-15T04:56:51;99078.75;;;4.52;100.00
33161;BME280;19522;45.656;11.302;2024-02-15T04:59:18;99028.38;;;4.23;100.00
33161;BME280;19522;45.656;11.302;2024-02-15T05:01:46;99073.00;;;4.66;100.00
33161;BME280;19522;45.656;11.302;2024-02-15T05:04:12;99067.03;;;4.94;100.00
33161;BME280;19522;45.656;11.302;2024-02-15T05:06:39;99078.81;;;5.03;100.00
33161;BME280;19522;45.656;11.302;2024-02-15T05:09:05;99072.38;;;4.84;100.00
33161;BME280;19522;45.656;11.302;2024-02-15T05:11:36;99073.19;;;4.75;100.00
33161;BME280;19522;45.656;11.302;2024-02-15T05:14:03;99075.13;;;4.63;100.00
33161;BME280;19522;45.656;11.302;2024-02-15T05:16:35;99072.00;;;4.67;100.00
33161;BME280;19522;45.656;11.302;2024-02-15T05:19:04;99068.81;;;4.74;100.00
33161;BME280;19522;45.656;11.302;2024-02-15T05:21:30;99021.94;;;4.76;99.41
33161;BME280;19522;45.656;11.302;2024-02-15T05:23:58;99067.69;;;4.86;99.15
33161;BME280;19522;45.656;11.302;2024-02-15T05:26:24;99062.16;;;4.78;99.46
33161;BME280;19522;45.656;11.302;2024-02-15T05:28:51;99056.81;;;4.88;99.83
33161;BME280;19522;45.656;11.302;2024-02-15T05:31:19;98961.16;;;4.23;98.71
33161;BME280;19522;45.656;11.302;2024-02-15T05:33:51;99046.78;;;4.99;97.22
33161;BME280;19522;45.656;11.302;2024-02-15T05:36:18;98957.44;;;4.55;96.52
33161;BME280;19522;45.656;11.302;2024-02-15T05:38:51;99045.44;;;4.43;99.82
33161;BME280;19522;45.656;11.302;2024-02-15T05:41:17;98893.63;;;3.33;100.00
33161;BME280;19522;45.656;11.302;2024-02-15T05:43:44;99008.53;;;3.93;100.00
33161;BME280;19522;45.656;11.302;2024-02-15T05:46:10;98935.31;;;3.49;100.00
33161;BME280;19522;45.656;11.302;2024-02-15T05:48:36;99061.00;;;4.40;100.00
33161;BME280;19522;45.656;11.302;2024-02-15T05:51:09;99066.38;;;4.40;100.00
33161;BME280;19522;45.656;11.302;2024-02-15T05:53:35;98964.63;;;3.83;100.00
33161;BME280;19522;45.656;11.302;2024-02-15T05:56:05;99047.50;;;4.30;100.00
33161;BME280;19522;45.656;11.302;2024-02-15T05:58:32;99068.72;;;4.33;100.00
33161;BME280;19522;45.656;11.302;2024-02-15T06:00:58;98909.09;;;3.20;100.00
33161;BME280;19522;45.656;11.302;2024-02-15T06:03:30;99078.88;;;4.19;100.00
33161;BME280;19522;45.656;11.302;2024-02-15T06:05:57;98918.47;;;3.25;100.00
33161;BME280;19522;45.656;11.302;2024-02-15T06:08:28;99073.47;;;4.72;100.00
33161;BME280;19522;45.656;11.302;2024-02-15T06:10:57;98956.84;;;4.11;99.40
33161;BME280;19522;45.656;11.302;2024-02-15T06:13:23;99072.22;;;4.45;100.00
33161;BME280;19522;45.656;11.302;2024-02-15T06:15:49;98934.09;;;3.41;100.00
33161;BME280;19522;45.656;11.302;2024-02-15T06:18:23;99073.00;;;4.66;100.00
33161;BME280;19522;45.656;11.302;2024-02-15T06:20:58;99087.56;;;4.54;100.00
33161;BME280;19522;45.656;11.302;2024-02-15T06:23:28;99086.81;;;4.52;100.00
33161;BME280;19522;45.656;11.302;2024-02-15T06:25:55;98949.97;;;3.45;100.00
33161;BME280;19522;45.656;11.302;2024-02-15T06:28:24;99100.97;;;4.23;100.00
33161;BME280;19522;45.656;11.302;2024-02-15T06:31:09;99103.28;;;4.59;100.00
33161;BME280;19522;45.656;11.302;2024-02-15T06:33:54;99103.22;;;4.80;99.12
33161;BME280;19522;45.656;11.302;2024-02-15T06:36:49;99098.66;;;4.71;99.27
33161;BME280;19522;45.656;11.302;2024-02-15T06:39:33;99110.00;;;4.22;100.00
33161;BME280;19522;45.656;11.302;2024-02-15T06:42:19;99015.88;;;3.49;100.00
33161;BME280;19522;45.656;11.302;2024-02-15T06:44:48;99105.03;;;4.17;100.00
33161;BME280;19522;45.656;11.302;2024-02-15T06:47:14;99112.88;;;4.30;100.00
33161;BME280;19522;45.656;11.302;2024-02-15T06:49:43;99114.22;;;4.15;100.00
33161;BME280;19522;45.656;11.302;2024-02-15T06:52:10;99112.50;;;4.14;100.00
33161;BME280;19522;45.656;11.302;2024-02-15T06:54:40;99030.28;;;3.48;100.00
33161;BME280;19522;45.656;11.302;2024-02-15T06:57:06;98993.81;;;3.45;100.00
33161;BME280;19522;45.656;11.302;2024-02-15T06:59:32;99117.56;;;4.80;100.00
33161;BME280;19522;45.656;11.302;2024-02-15T07:01:58;99118.16;;;4.94;100.00
33161;BME280;19522;45.656;11.302;2024-02-15T07:04:24;99118.00;;;4.86;100.00
33161;BME280;19522;45.656;11.302;2024-02-15T07:06:52;99125.25;;;4.64;100.00
33161;BME280;19522;45.656;11.302;2024-02-15T07:09:22;99124.81;;;4.59;100.00
33161;BME280;19522;45.656;11.302;2024-02-15T07:11:52;99124.09;;;4.57;100.00
33161;BME280;19522;45.656;11.302;2024-02-15T07:14:18;99121.53;;;4.55;100.00
33161;BME280;19522;45.656;11.302;2024-02-15T07:16:48;99127.09;;;4.63;100.00
33161;BME280;19522;45.656;11.302;2024-02-15T07:19:15;99122.22;;;4.78;100.00
33161;BME280;19522;45.656;11.302;2024-02-15T07:21:41;99123.78;;;4.81;100.00
33161;BME280;19522;45.656;11.302;2024-02-15T07:24:07;99125.41;;;4.93;100.00
33161;BME280;19522;45.656;11.302;2024-02-15T07:26:32;99106.72;;;5.02;100.00
33161;BME280;19522;45.656;11.302;2024-02-15T07:29:00;99108.56;;;5.61;98.78
33161;BME280;19522;45.656;11.302;2024-02-15T07:31:29;99119.19;;;5.63;98.60
33161;BME280;19522;45.656;11.302;2024-02-15T07:33:55;99117.88;;;5.38;99.57
33161;BME280;19522;45.656;11.302;2024-02-15T07:36:21;99115.75;;;5.41;100.00
33161;BME280;19522;45.656;11.302;2024-02-15T07:38:50;99120.19;;;5.82;98.34
33161;BME280;19522;45.656;11.302;2024-02-15T07:41:21;99115.47;;;5.54;99.64
33161;BME280;19522;45.656;11.302;2024-02-15T07:43:48;99112.94;;;5.43;100.00
33161;BME280;19522;45.656;11.302;2024-02-15T07:46:14;99113.16;;;5.30;100.00
33161;BME280;19522;45.656;11.302;2024-02-15T07:48:42;99110.22;;;5.43;100.00
33161;BME280;19522;45.656;11.302;2024-02-15T07:51:21;99101.56;;;5.39;100.00
33161;BME280;19522;45.656;11.302;2024-02-15T07:53:48;99097.19;;;5.48;100.00
33161;BME280;19522;45.656;11.302;2024-02-15T07:56:14;99104.84;;;5.53;100.00
33161;BME280;19522;45.656;11.302;2024-02-15T07:58:45;99108.69;;;5.70;100.00
33161;BME280;19522;45.656;11.302;2024-02-15T08:01:12;99113.25;;;5.79;100.00
33161;BME280;19522;45.656;11.302;2024-02-15T08:03:38;99085.84;;;5.84;100.00
33161;BME280;19522;45.656;11.302;2024-02-15T08:06:10;99098.19;;;6.16;100.00
33161;BME280;19522;45.656;11.302;2024-02-15T08:08:42;99107.06;;;6.55;98.48
33161;BME280;19522;45.656;11.302;2024-02-15T08:11:10;99112.75;;;6.52;99.09
33161;BME280;19522;45.656;11.302;2024-02-15T08:13:46;99119.53;;;7.04;98.31
33161;BME280;19522;45.656;11.302;2024-02-15T08:16:16;99085.97;;;6.69;98.03
33161;BME280;19522;45.656;11.302;2024-02-15T08:18:45;99112.97;;;6.69;98.02
33161;BME280;19522;45.656;11.302;2024-02-15T08:21:14;99110.09;;;6.80;97.74
33161;BME280;19522;45.656;11.302;2024-02-15T08:23:40;99110.91;;;6.91;97.53
33161;BME280;19522;45.656;11.302;2024-02-15T08:26:05;99075.72;;;6.82;96.84
33161;BME280;19522;45.656;11.302;2024-02-15T08:28:31;99088.41;;;7.00;95.60
33161;BME280;19522;45.656;11.302;2024-02-15T08:30:56;99092.47;;;7.14;95.30
33161;BME280;19522;45.656;11.302;2024-02-15T08:33:23;99104.09;;;7.42;94.33
33161;BME280;19522;45.656;11.302;2024-02-15T08:35:49;99103.03;;;7.53;93.24
33161;BME280;19522;45.656;11.302;2024-02-15T08:38:15;99109.00;;;7.75;91.92
33161;BME280;19522;45.656;11.302;2024-02-15T08:40:40;99096.56;;;7.82;90.96
33161;BME280;19522;45.656;11.302;2024-02-15T08:43:06;99105.38;;;8.02;89.87
33161;BME280;19522;45.656;11.302;2024-02-15T08:45:31;99072.81;;;7.94;88.51
33161;BME280;19522;45.656;11.302;2024-02-15T08:47:57;99101.25;;;8.42;84.85
33161;BME280;19522;45.656;11.302;2024-02-15T08:50:22;99106.41;;;8.72;86.46
33161;BME280;19522;45.656;11.302;2024-02-15T08:52:50;99086.16;;;8.84;82.65
33161;BME280;19522;45.656;11.302;2024-02-15T08:55:16;99047.66;;;8.72;82.64
33161;BME280;19522;45.656;11.302;2024-02-15T08:57:43;99090.81;;;9.51;81.67
33161;BME280;19522;45.656;11.302;2024-02-15T09:00:10;99048.53;;;9.24;80.81
33161;BME280;19522;45.656;11.302;2024-02-15T09:02:39;99067.34;;;9.34;80.24
33161;BME280;19522;45.656;11.302;2024-02-15T09:05:06;99067.56;;;9.57;80.60
33161;BME280;19522;45.656;11.302;2024-02-15T09:07:31;99088.13;;;9.85;79.41
33161;BME280;19522;45.656;11.302;2024-02-15T09:09:57;99064.59;;;9.85;79.41
33161;BME280;19522;45.656;11.302;2024-02-15T09:12:22;99056.78;;;9.90;77.12
33161;BME280;19522;45.656;11.302;2024-02-15T09:14:48;99053.56;;;9.87;72.24
33161;BME280;19522;45.656;11.302;2024-02-15T09:17:14;99065.22;;;10.53;69.08
33161;BME280;19522;45.656;11.302;2024-02-15T09:19:40;99075.91;;;10.63;70.01
33161;BME280;19522;45.656;11.302;2024-02-15T09:22:06;99061.06;;;10.82;68.24
33161;BME280;19522;45.656;11.302;2024-02-15T09:24:32;99038.50;;;10.82;68.64
33161;BME280;19522;45.656;11.302;2024-02-15T09:27:02;99070.44;;;11.19;69.20
33161;BME280;19522;45.656;11.302;2024-02-15T09:29:28;99061.16;;;11.05;68.60
33161;BME280;19522;45.656;11.302;2024-02-15T09:31:59;99053.97;;;10.81;68.88
33161;BME280;19522;45.656;11.302;2024-02-15T09:34:28;99048.72;;;10.71;68.61
33161;BME280;19522;45.656;11.302;2024-02-15T09:36:53;98995.78;;;10.59;68.37
33161;BME280;19522;45.656;11.302;2024-02-15T09:39:20;99070.13;;;11.14;67.28
33161;BME280;19522;45.656;11.302;2024-02-15T09:41:46;99039.00;;;11.17;65.92
33161;BME280;19522;45.656;11.302;2024-02-15T09:44:16;99064.59;;;11.31;67.02
33161;BME280;19522;45.656;11.302;2024-02-15T09:46:46;99039.09;;;11.32;67.49
33161;BME280;19522;45.656;11.302;2024-02-15T09:49:16;99064.69;;;11.69;67.01
33161;BME280;19522;45.656;11.302;2024-02-15T09:51:43;99047.97;;;11.80;66.69
33161;BME280;19522;45.656;11.302;2024-02-15T09:54:10;99040.72;;;11.96;65.45
33161;BME280;19522;45.656;11.302;2024-02-15T09:56:39;99064.00;;;12.22;64.22
33161;BME280;19522;45.656;11.302;2024-02-15T09:59:05;99078.69;;;12.51;65.02
33161;BME280;19522;45.656;11.302;2024-02-15T10:01:34;99041.41;;;12.81;63.93
33161;BME280;19522;45.656;11.302;2024-02-15T10:04:03;99065.38;;;13.01;62.82
33161;BME280;19522;45.656;11.302;2024-02-15T10:06:34;99059.72;;;13.17;62.26
33161;BME280;19522;45.656;11.302;2024-02-15T10:09:28;99060.78;;;13.38;61.38
33161;BME280;19522;45.656;11.302;2024-02-15T10:11:58;99042.09;;;13.50;60.25
33161;BME280;19522;45.656;11.302;2024-02-15T10:14:30;99021.44;;;13.84;58.49
33161;BME280;19522;45.656;11.302;2024-02-15T10:16:56;99052.81;;;13.36;57.56
33161;BME280;19522;45.656;11.302;2024-02-15T10:19:22;99008.41;;;13.43;57.04
33161;BME280;19522;45.656;11.302;2024-02-15T10:21:52;99027.81;;;13.69;55.89
33161;BME280;19522;45.656;11.302;2024-02-15T10:24:23;99041.22;;;14.14;55.58
33161;BME280;19522;45.656;11.302;2024-02-15T10:27:03;99037.53;;;14.00;55.06
33161;BME280;19522;45.656;11.302;2024-02-15T10:29:33;99049.13;;;14.59;54.79
33161;BME280;19522;45.656;11.302;2024-02-15T10:32:00;99043.09;;;14.36;54.86
33161;BME280;19522;45.656;11.302;2024-02-15T10:34:26;99039.63;;;14.84;54.34
33161;BME280;19522;45.656;11.302;2024-02-15T10:37:16;99046.31;;;14.74;54.04
33161;BME280;19522;45.656;11.302;2024-02-15T10:40:04;99016.19;;;14.68;53.80
33161;BME280;19522;45.656;11.302;2024-02-15T10:42:34;99033.00;;;15.00;53.17
33161;BME280;19522;45.656;11.302;2024-02-15T10:45:05;99000.72;;;15.37;51.58
33161;BME280;19522;45.656;11.302;2024-02-15T10:47:37;98987.50;;;15.47;51.55
33161;BME280;19522;45.656;11.302;2024-02-15T10:50:02;99002.63;;;15.36;51.58
33161;BME280;19522;45.656;11.302;2024-02-15T10:52:31;98982.50;;;15.02;52.18
33161;BME280;19522;45.656;11.302;2024-02-15T10:55:08;99019.28;;;14.58;53.46
33161;BME280;19522;45.656;11.302;2024-02-15T10:57:45;99022.13;;;14.43;54.42
33161;BME280;19522;45.656;11.302;2024-02-15T11:00:12;98987.88;;;14.75;54.33
33161;BME280;19522;45.656;11.302;2024-02-15T11:03:02;99005.59;;;15.48;52.40
33161;BME280;19522;45.656;11.302;2024-02-15T11:05:35;99000.97;;;15.42;52.02
33161;BME280;19522;45.656;11.302;2024-02-15T11:08:06;98994.25;;;14.89;53.07
33161;BME280;19522;45.656;11.302;2024-02-15T11:10:35;98993.44;;;15.02;52.59
33161;BME280;19522;45.656;11.302;2024-02-15T11:13:04;98993.47;;;15.09;54.23
33161;BME280;19522;45.656;11.302;2024-02-15T11:15:46;98985.78;;;15.33;52.45
33161;BME280;19522;45.656;11.302;2024-02-15T11:21:15;98959.66;;;15.23;52.81
33161;BME280;19522;45.656;11.302;2024-02-15T11:23:41;98960.44;;;15.04;53.56
33161;BME280;19522;45.656;11.302;2024-02-15T11:26:43;98980.34;;;15.53;52.83
33161;BME280;19522;45.656;11.302;2024-02-15T11:32:35;98973.50;;;15.15;52.24
33161;BME280;19522;45.656;11.302;2024-02-15T11:35:04;98974.78;;;15.19;51.80
33161;BME280;19522;45.656;11.302;2024-02-15T11:40:17;98943.16;;;14.96;53.93
33161;BME280;19522;45.656;11.302;2024-02-15T11:42:44;98964.97;;;15.38;51.88
33161;BME280;19522;45.656;11.302;2024-02-15T11:45:11;98947.88;;;15.23;52.41
33161;BME280;19522;45.656;11.302;2024-02-15T11:47:38;98917.59;;;15.65;52.12
33161;BME280;19522;45.656;11.302;2024-02-15T11:50:09;98946.03;;;15.70;51.14
33161;BME280;19522;45.656;11.302;2024-02-15T11:52:44;98951.31;;;16.26;50.21
33161;BME280;19522;45.656;11.302;2024-02-15T11:55:12;98944.16;;;15.71;50.38
33161;BME280;19522;45.656;11.302;2024-02-15T11:57:39;98939.94;;;15.62;49.64
33161;BME280;19522;45.656;11.302;2024-02-15T12:00:25;98909.19;;;15.80;50.90
33161;BME280;19522;45.656;11.302;2024-02-15T12:03:10;98925.63;;;15.80;49.29
33161;BME280;19522;45.656;11.302;2024-02-15T12:05:54;98943.13;;;15.85;49.51
33161;BME280;19522;45.656;11.302;2024-02-15T12:08:39;98938.94;;;15.89;50.52
33161;BME280;19522;45.656;11.302;2024-02-15T12:11:23;98920.53;;;15.30;50.08
33161;BME280;19522;45.656;11.302;2024-02-15T12:14:12;98935.31;;;15.76;50.86
33161;BME280;19522;45.656;11.302;2024-02-15T12:17:07;98932.16;;;15.72;50.15
33161;BME280;19522;45.656;11.302;2024-02-15T12:20:10;98916.75;;;16.18;51.08
33161;BME280;19522;45.656;11.302;2024-02-15T12:25:06;98899.00;;;16.47;49.04
33161;BME280;19522;45.656;11.302;2024-02-15T12:27:43;98919.28;;;16.85;47.46
33161;BME280;19522;45.656;11.302;2024-02-15T12:30:14;98925.25;;;16.75;48.75
33161;BME280;19522;45.656;11.302;2024-02-15T12:32:40;98906.47;;;15.86;49.24
33161;BME280;19522;45.656;11.302;2024-02-15T12:35:13;98907.13;;;15.88;51.24
33161;BME280;19522;45.656;11.302;2024-02-15T12:40:16;98914.56;;;16.54;49.35
33161;BME280;19522;45.656;11.302;2024-02-15T12:42:43;98888.03;;;16.41;49.10
33161;BME280;19522;45.656;11.302;2024-02-15T12:45:21;98883.66;;;16.26;49.09
33161;BME280;19522;45.656;11.302;2024-02-15T12:47:49;98890.00;;;16.27;50.87
33161;BME280;19522;45.656;11.302;2024-02-15T12:50:23;98854.31;;;16.40;48.68
33161;BME280;19522;45.656;11.302;2024-02-15T12:52:49;98889.38;;;16.18;49.59
33161;BME280;19522;45.656;11.302;2024-02-15T12:55:20;98891.41;;;16.49;49.63
33161;BME280;19522;45.656;11.302;2024-02-15T12:57:53;98872.03;;;16.38;49.41
33161;BME280;19522;45.656;11.302;2024-02-15T13:00:31;98875.75;;;16.63;49.07
33161;BME280;19522;45.656;11.302;2024-02-15T13:02:59;98886.19;;;16.28;49.75
33161;BME280;19522;45.656;11.302;2024-02-15T13:05:26;98861.44;;;16.48;50.76
33161;BME280;19522;45.656;11.302;2024-02-15T13:07:53;98869.41;;;16.63;49.51
33161;BME280;19522;45.656;11.302;2024-02-15T13:10:36;98865.84;;;16.62;49.15
33161;BME280;19522;45.656;11.302;2024-02-15T13:13:04;98806.84;;;16.46;50.15
33161;BME280;19522;45.656;11.302;2024-02-15T13:15:31;98865.69;;;16.96;48.33